This is the latest recevied weather packets stored in our database for station/object HA3YA-WX. If no packets are shown the sender has not sent any weather packets the latest 10 day(s).
| Time | Temp. | Humidity | Pressure | Rain* | Wind** | Luminosity | Snow |
|---|---|---|---|---|---|---|---|
| 1788684782 | 24.44° C | 62% | 1013 hPa | - | - | - | - |
| 1788683583 | 23.33° C | 64% | 1013 hPa | - | - | - | - |
| 1788682982 | 23.33° C | 65% | 1013 hPa | - | - | - | - |
| 1788682383 | 23.33° C | 66% | 1013.2 hPa | - | - | - | - |
| 1788681783 | 22.78° C | 68% | 1013 hPa | - | - | - | - |
| 1788679982 | 20.56° C | 73% | 1012.8 hPa | - | - | - | - |
| 1788679383 | 20.56° C | 73% | 1012.8 hPa | - | - | - | - |
| 1788678782 | 20° C | 74% | 1012 hPa | - | - | - | - |
| 1788678183 | 20° C | 74% | 1012 hPa | - | - | - | - |
| 1788677583 | 19.44° C | 74% | 1012 hPa | - | - | - | - |
| 1788676382 | 19.44° C | 76% | 1012.4 hPa | - | - | - | - |
| 1788675782 | 19.44° C | 76% | 1012.4 hPa | - | - | - | - |
| 1788675183 | 18.89° C | 75% | 1012 hPa | - | - | - | - |
| 1788672782 | 18.33° C | 79% | 1012 hPa | - | - | - | - |
| 1788672182 | 18.33° C | 81% | 1012 hPa | - | - | - | - |
| 1788671582 | 18.33° C | 81% | 1011 hPa | - | - | - | - |
| 1788670983 | 18.33° C | 81% | 1011 hPa | - | - | - | - |
| 1788670382 | 18.33° C | 81% | 1011.4 hPa | - | - | - | - |
| 1788669782 | 18.89° C | 80% | 1011.4 hPa | - | - | - | - |
| 1788669183 | 18.89° C | 79% | 1011.4 hPa | - | - | - | - |
| 1788668582 | 18.89° C | 80% | 1011 hPa | - | - | - | - |
| 1788667983 | 18.89° C | 81% | 1011 hPa | - | - | - | - |
| 1788667382 | 18.89° C | 81% | 1011 hPa | - | - | - | - |
| 1788666783 | 18.89° C | 81% | 1011 hPa | - | - | - | - |
| 1788666182 | 18.89° C | 82% | 1011 hPa | - | - | - | - |
* Rain since midnight (hover to see other rain measurements)
** Current wind speed in m/s (hover to see current wind gust speed)